This is the latest recevied weather packets stored in our database for station/object PY2CQC-13. If no packets are shown the sender has not sent any weather packets the latest 10 day(s).
| Time | Temp. | Humidity | Pressure | Rain* | Wind** | Luminosity | Snow |
|---|---|---|---|---|---|---|---|
| 1777595525 | 21.11° C | 85% | 1035.1 hPa | - | - | - | - |
| 1777593724 | 21.11° C | 84% | 1034.9 hPa | - | - | - | - |
| 1777591925 | 22.22° C | 80% | 1034.6 hPa | - | - | - | - |
| 1777590125 | 23.89° C | 73% | 1034.1 hPa | - | - | - | - |
| 1777588325 | 24.44° C | 71% | 1033.8 hPa | - | - | - | - |
| 1777586525 | 25° C | 72% | 1033.4 hPa | - | - | - | - |
| 1777584724 | 25° C | 70% | 1033.2 hPa | - | - | - | - |
| 1777582924 | 25° C | 71% | 1033 hPa | - | - | - | - |
| 1777581124 | 25.56° C | 69% | 1032.9 hPa | - | - | - | - |
| 1777579325 | 26.11° C | 69% | 1032.8 hPa | - | - | - | - |
| 1777577525 | 26.11° C | 67% | 1032.4 hPa | - | - | - | - |
| 1777575725 | 26.67° C | 67% | 1032.3 hPa | - | - | - | - |
| 1777573925 | 26.67° C | 67% | 1032.3 hPa | - | - | - | - |
| 1777572125 | 26.67° C | 67% | 1032.3 hPa | - | - | - | - |
| 1777570324 | 26.11° C | 67% | 1032.4 hPa | - | - | - | - |
| 1777568524 | 25.56° C | 66% | 1032.7 hPa | - | - | - | - |
| 1777566724 | 26.11° C | 64% | 1033 hPa | - | - | - | - |
| 1777564925 | 25.56° C | 65% | 1033.3 hPa | - | - | - | - |
| 1777563125 | 26.67° C | 63% | 1033.7 hPa | - | - | - | - |
| 1777561325 | 25° C | 64% | 1034.2 hPa | - | - | - | - |
| 1777559524 | 24.44° C | 67% | 1034.6 hPa | - | - | - | - |
| 1777557724 | 25.56° C | 64% | 1035 hPa | - | - | - | - |
| 1777555924 | 24.44° C | 67% | 1035.3 hPa | - | - | - | - |
| 1777554124 | 22.78° C | 72% | 1035.2 hPa | - | - | - | - |
| 1777552325 | 22.22° C | 74% | 1035 hPa | - | - | - | - |
* Rain since midnight (hover to see other rain measurements)
** Current wind speed in m/s (hover to see current wind gust speed)